Other Surface Observations
Issued by NWS Great Falls, MT

Home | Current Version | Previous Version | Text Only | Print | Product List | Glossary On
Versions: 1 2 3 4 5 6 7 8 9 10 11 12 13 14 15 16 17 18 19 20 21 22 23 24 25 26 27 28 29 30 31 32 33 34 35 36 37 38 39 40 41 42 43 44 45 46 47 48 49 50
498
SXUS55 KTFX 250911
OSOTFX

AREA AWOS OBSERVATIONS
NATIONAL WEATHER SERVICE GREAT FALLS MT
0310 AM MDT Sun Sep 25 2016

METAR K6S8 250855Z AUTO 29000KT 40SM 08/03 A3029 RMK A01 T00770027
METAR K6S8 250755Z AUTO 28007KT 40SM 11/04 A3028 RMK A01 T01110044
METAR K7S0 250855Z AUTO 23000KT 40SM 03/00 A3041 RMK A01 T00330000
METAR K7S1 250855Z AUTO 11004KT 40SM 02/M03 A3036 RMK A01 T00161033
METAR K7S1 250755Z AUTO 10006KT 40SM 03/M02 A3036 RMK A01 T00271016
METAR K97M 250755Z AUTO 28017KT 40SM 08/06 A3011 RMK A01 T00830061
METAR K9S2 250855Z AUTO 29012KT 40SM 07/01 A3010 RMK A01 T00660005
METAR K9S2 250755Z AUTO 30014KT 40SM 08/01 A3007 RMK A01 T00770011
METAR K9S5 250855Z AUTO 23000KT 25SM 01/01 A3035 RMK A01 T00050005
METAR KRPX 250855Z AUTO 23005KT 40SM 08/03 A3021 RMK A01 T00770033
METAR KS01 250855Z AUTO 25011KT 40SM 10/03 A3028 RMK A01 T01000033
METAR KS01 250755Z AUTO 24000KT 40SM 03/02 A3029 RMK A01 T00270016
METAR KS34 250855Z AUTO 35000KT 40SM 04/01 A3040 RMK A01 T00440011
METAR KS34 250755Z AUTO 35000KT 40SM 04/00 A3038 RMK A01 T00380000
METAR KTHM 250755Z AUTO 25000KT 40SM 04/02 A3043 RMK A01 T00380016



USA.gov is the U.S. government's official web portal to all federal, state and local government web resources and services.